createdAt,value
2023-03-17T00:01:12.484Z,93.81
2023-03-17T00:06:19.089Z,94.50
2023-03-17T00:11:22.051Z,94.62
2023-03-17T00:16:27.248Z,94.80
2023-03-17T00:21:32.111Z,94.95
2023-03-17T00:26:34.608Z,94.75
2023-03-17T00:31:39.649Z,95.03
2023-03-17T00:36:43.935Z,95.07
2023-03-17T00:46:48.449Z,95.68
2023-03-17T00:51:51.333Z,95.91
2023-03-17T00:56:54.141Z,96.09
2023-03-17T01:01:57.420Z,96.29
2023-03-17T01:07:00.062Z,96.25
2023-03-17T01:12:02.560Z,96.28
2023-03-17T01:17:13.657Z,96.63
2023-03-17T01:22:16.132Z,96.81
2023-03-17T01:27:19.203Z,96.94
2023-03-17T01:32:22.207Z,96.64
2023-03-17T01:37:25.659Z,96.49
2023-03-17T01:42:28.883Z,96.68
2023-03-17T01:47:32.075Z,96.64
2023-03-17T01:52:38.423Z,97.05
2023-03-17T01:57:44.906Z,96.90
2023-03-17T02:02:50.116Z,96.75
2023-03-17T02:07:53.615Z,96.65
2023-03-17T02:13:00.139Z,96.54
2023-03-17T02:18:03.667Z,96.63
2023-03-17T02:23:07.441Z,96.68
2023-03-17T02:28:16.461Z,96.80
2023-03-17T02:33:19.128Z,96.48
2023-03-17T02:38:22.134Z,96.52
2023-03-17T02:43:24.663Z,96.53
2023-03-17T02:48:27.268Z,96.63
2023-03-17T02:53:29.792Z,96.82
2023-03-17T02:58:32.351Z,96.66
2023-03-17T03:03:35.065Z,96.28
2023-03-17T03:08:37.722Z,96.23
2023-03-17T03:13:40.506Z,96.75
2023-03-17T03:18:43.026Z,96.97
2023-03-17T03:23:46.026Z,96.74
2023-03-17T03:28:48.812Z,96.11
2023-03-17T03:33:51.578Z,96.03
2023-03-17T03:38:54.159Z,96.24
2023-03-17T03:43:56.859Z,96.49
2023-03-17T03:48:59.433Z,96.37
2023-03-17T03:54:01.932Z,96.07
2023-03-17T03:59:04.517Z,96.11
2023-03-17T04:04:07.302Z,96.15
2023-03-17T04:09:09.796Z,96.13
2023-03-17T04:14:12.668Z,96.70
2023-03-17T04:19:15.261Z,97.11
2023-03-17T04:24:17.807Z,97.37
2023-03-17T04:29:20.463Z,96.70
2023-03-17T04:34:23.394Z,96.91
2023-03-17T04:39:25.934Z,97.33
2023-03-17T04:44:28.485Z,97.09
2023-03-17T04:49:31.295Z,96.89
2023-03-17T04:54:33.834Z,97.00
2023-03-17T04:59:36.701Z,96.67
2023-03-17T05:04:39.267Z,97.06
2023-03-17T05:09:41.951Z,97.27
2023-03-17T05:14:44.473Z,96.78
2023-03-17T05:19:47.116Z,96.98
2023-03-17T05:24:49.666Z,97.17
2023-03-17T05:29:52.502Z,97.24
2023-03-17T05:34:55.062Z,97.05
2023-03-17T05:39:57.718Z,96.67
2023-03-17T05:45:00.258Z,96.37
2023-03-17T05:50:04.728Z,96.98
2023-03-17T05:55:08.422Z,96.50
2023-03-17T06:00:13.454Z,96.01
2023-03-17T06:05:16.160Z,95.64
2023-03-17T06:10:18.730Z,95.88
2023-03-17T06:15:21.368Z,95.35
2023-03-17T06:20:24.083Z,95.04
2023-03-17T06:25:26.931Z,95.07
2023-03-17T06:30:30.732Z,94.59
2023-03-17T06:35:34.419Z,94.29
2023-03-17T06:40:37.388Z,94.52
2023-03-17T06:45:39.974Z,93.82
2023-03-17T06:50:42.627Z,93.60
2023-03-17T06:55:46.024Z,93.42
2023-03-17T07:00:48.905Z,93.66
2023-03-17T07:05:52.030Z,93.49
2023-03-17T07:10:57.212Z,92.76
2023-03-17T07:16:00.669Z,92.30
2023-03-17T07:21:03.620Z,91.97
2023-03-17T07:26:06.229Z,91.64
2023-03-17T07:31:11.519Z,91.83
2023-03-17T07:36:15.655Z,91.65
2023-03-17T07:41:18.204Z,91.15
2023-03-17T07:46:21.392Z,90.00
2023-03-17T07:51:27.662Z,88.10
2023-03-17T07:56:31.253Z,86.85
2023-03-17T08:01:34.147Z,86.01
2023-03-17T08:06:37.292Z,85.88
2023-03-17T08:11:39.790Z,84.75
2023-03-17T08:16:42.794Z,83.93
2023-03-17T08:21:45.609Z,83.81
2023-03-17T08:26:49.233Z,83.62
2023-03-17T08:31:51.900Z,83.15
2023-03-17T08:36:54.642Z,82.46
2023-03-17T08:41:57.413Z,81.93
2023-03-17T08:46:59.965Z,79.60
2023-03-17T08:52:03.466Z,77.00
2023-03-17T08:57:06.096Z,75.52
2023-03-17T09:02:11.875Z,75.69
2023-03-17T09:07:15.072Z,74.05
2023-03-17T09:12:17.654Z,72.40
2023-03-17T09:17:20.275Z,71.12
2023-03-17T09:22:23.190Z,70.25
2023-03-17T09:27:25.780Z,69.80
2023-03-17T09:32:28.359Z,66.80
2023-03-17T09:37:31.081Z,66.73
2023-03-17T09:42:38.557Z,64.66
2023-03-17T09:48:11.987Z,63.29
2023-03-17T09:53:33.948Z,63.59
2023-03-17T09:58:39.205Z,63.03
2023-03-17T10:03:42.716Z,61.80
2023-03-17T10:09:16.996Z,61.32
2023-03-17T10:14:35.217Z,60.89
2023-03-17T10:19:40.640Z,58.62
2023-03-17T10:24:48.854Z,58.93
2023-03-17T10:29:52.852Z,57.22
2023-03-17T10:34:56.522Z,57.68
2023-03-17T10:40:00.951Z,56.26
2023-03-17T10:45:27.775Z,54.07
2023-03-17T10:50:33.579Z,52.51
2023-03-17T10:55:42.843Z,51.79
2023-03-17T11:01:08.222Z,50.29
2023-03-17T11:06:13.636Z,49.66
2023-03-17T11:11:24.702Z,50.18
2023-03-17T11:16:27.360Z,49.63
2023-03-17T11:21:33.908Z,49.46
2023-03-17T11:26:57.503Z,47.81
2023-03-17T11:32:19.708Z,47.24
2023-03-17T11:37:41.491Z,48.95
2023-03-17T11:42:58.567Z,48.49
2023-03-17T11:48:27.672Z,47.56
2023-03-17T11:53:55.604Z,47.57
2023-03-17T11:59:06.570Z,46.36
2023-03-17T12:04:34.294Z,47.33
2023-03-17T12:09:45.594Z,46.14
2023-03-17T12:14:52.278Z,44.65
2023-03-17T12:20:18.216Z,43.82
2023-03-17T12:25:29.426Z,44.33
2023-03-17T12:30:48.361Z,44.63
2023-03-17T12:35:52.054Z,45.72
2023-03-17T12:41:08.630Z,43.71
2023-03-17T12:46:28.835Z,42.26
2023-03-17T12:51:40.731Z,44.03
2023-03-17T12:56:46.411Z,43.48
2023-03-17T13:02:06.042Z,43.84
2023-03-17T13:07:14.985Z,42.36
2023-03-17T13:12:36.120Z,43.53
2023-03-17T13:17:38.686Z,43.60
2023-03-17T13:23:02.116Z,44.03
2023-03-17T13:28:10.929Z,42.61
2023-03-17T13:33:15.149Z,42.84
2023-03-17T13:38:48.577Z,42.96
2023-03-17T13:44:20.512Z,44.10
2023-03-17T13:49:30.286Z,43.96
2023-03-17T13:54:40.596Z,44.36
2023-03-17T14:00:01.595Z,44.95
2023-03-17T14:05:07.621Z,45.30
2023-03-17T14:10:19.522Z,45.35
2023-03-17T14:15:35.021Z,45.03
2023-03-17T14:20:37.629Z,44.68
2023-03-17T14:25:40.259Z,44.94
2023-03-17T14:30:53.130Z,43.76
2023-03-17T14:36:01.834Z,43.70
2023-03-17T14:41:18.261Z,43.34
2023-03-17T14:46:26.477Z,43.16
2023-03-17T14:51:33.210Z,42.83
2023-03-17T14:56:39.879Z,42.32
2023-03-17T15:01:45.522Z,42.54
2023-03-17T15:06:54.968Z,42.56
2023-03-17T15:12:23.129Z,42.10
2023-03-17T15:17:33.352Z,42.86
2023-03-17T15:22:35.828Z,43.47
2023-03-17T15:27:38.333Z,44.01
2023-03-17T15:32:41.272Z,45.56
2023-03-17T15:37:43.943Z,45.45
2023-03-17T15:42:46.798Z,45.68
2023-03-17T15:47:49.404Z,46.42
2023-03-17T15:52:57.976Z,46.53
2023-03-17T15:58:00.629Z,47.62
2023-03-17T16:03:28.884Z,48.32
2023-03-17T16:08:31.432Z,49.10
2023-03-17T16:13:34.001Z,49.92
2023-03-17T16:18:38.175Z,50.30
2023-03-17T16:23:41.040Z,51.09
2023-03-17T16:28:45.508Z,51.98
2023-03-17T16:33:49.085Z,52.81
2023-03-17T16:38:52.025Z,53.72
2023-03-17T16:44:01.122Z,54.82
2023-03-17T16:49:04.964Z,55.34
2023-03-17T16:54:07.765Z,56.16
2023-03-17T16:59:18.427Z,56.68
2023-03-17T17:04:20.936Z,56.98
2023-03-17T17:09:23.445Z,57.48
2023-03-17T17:14:25.955Z,57.77
2023-03-17T17:19:28.586Z,58.42
2023-03-17T17:24:31.088Z,58.98
2023-03-17T17:29:33.640Z,59.53
2023-03-17T17:34:36.150Z,59.88
2023-03-17T17:39:38.720Z,60.27
2023-03-17T17:44:41.241Z,60.51
2023-03-17T17:49:43.850Z,60.71
2023-03-17T17:54:46.377Z,60.90
2023-03-17T17:59:48.922Z,61.04
2023-03-17T18:04:51.645Z,61.25
2023-03-17T18:09:54.334Z,61.76
2023-03-17T18:14:56.970Z,62.29
2023-03-17T18:19:59.508Z,62.64
2023-03-17T18:25:02.032Z,62.87
2023-03-17T18:30:07.467Z,63.33
2023-03-17T18:35:14.816Z,63.50
2023-03-17T18:40:19.140Z,63.66
2023-03-17T18:45:21.920Z,64.05
2023-03-17T18:50:24.488Z,64.02
2023-03-17T18:55:27.008Z,64.35
2023-03-17T19:00:30.022Z,64.37
2023-03-17T19:05:37.538Z,64.64
2023-03-17T19:10:42.818Z,64.55
2023-03-17T19:15:46.031Z,64.62
2023-03-17T19:20:48.637Z,64.59
2023-03-17T19:25:51.169Z,64.43
2023-03-17T19:30:55.868Z,64.40
2023-03-17T19:35:59.987Z,64.51
2023-03-17T19:41:03.486Z,64.56
2023-03-17T19:46:06.177Z,64.66
2023-03-17T19:51:09.363Z,64.51
2023-03-17T19:56:11.978Z,64.79
2023-03-17T20:01:14.692Z,64.82
2023-03-17T20:06:17.315Z,64.85
2023-03-17T20:11:19.833Z,65.03
2023-03-17T20:16:22.739Z,65.45
2023-03-17T20:21:25.497Z,65.41
2023-03-17T20:26:28.724Z,65.65
2023-03-17T20:31:31.991Z,65.62
2023-03-17T20:36:34.668Z,65.88
2023-03-17T20:41:37.162Z,65.64
2023-03-17T20:46:39.892Z,65.49
2023-03-17T20:51:43.705Z,65.41
2023-03-17T20:56:49.404Z,65.20
2023-03-17T21:01:52.048Z,65.17
2023-03-17T21:06:54.611Z,65.13
2023-03-17T21:11:57.124Z,65.18
2023-03-17T21:17:01.290Z,65.15
2023-03-17T21:22:04.518Z,65.22
2023-03-17T21:27:11.063Z,65.37
2023-03-17T21:32:13.646Z,65.31
2023-03-17T21:37:18.254Z,65.19
2023-03-17T21:42:20.739Z,65.09
2023-03-17T21:47:23.223Z,64.82
2023-03-17T21:52:25.987Z,64.46
2023-03-17T21:57:29.512Z,64.29
2023-03-17T22:02:32.016Z,63.89
2023-03-17T22:07:34.531Z,63.62
2023-03-17T22:12:38.254Z,63.36
2023-03-17T22:17:40.788Z,63.23
2023-03-17T22:22:43.317Z,63.10
2023-03-17T22:27:45.933Z,63.18
2023-03-17T22:32:48.890Z,63.10
2023-03-17T22:37:51.399Z,63.35
2023-03-17T22:42:56.497Z,63.41
2023-03-17T22:47:58.975Z,63.33
2023-03-17T22:53:01.688Z,63.63
2023-03-17T22:58:04.246Z,63.68
2023-03-17T23:03:07.144Z,63.77
2023-03-17T23:08:09.620Z,63.66
2023-03-17T23:13:12.605Z,63.56
2023-03-17T23:18:15.497Z,63.85
2023-03-17T23:23:17.979Z,63.52
2023-03-17T23:28:20.575Z,63.72
2023-03-17T23:33:24.038Z,63.65
2023-03-17T23:38:26.634Z,63.92
2023-03-17T23:43:29.170Z,64.04
2023-03-17T23:48:32.689Z,63.75
2023-03-17T23:53:35.492Z,63.92
2023-03-17T23:58:38.141Z,63.83
